sensor_id;sensor_type;location;lat;lon;timestamp;P1;durP1;ratioP1;P2;durP2;ratioP2
32216;SDS011;67098;51.140;4.088;2023-03-14T00:00:36;9.68;;;1.83;;
32216;SDS011;67098;51.140;4.088;2023-03-14T00:03:01;10.35;;;1.60;;
32216;SDS011;67098;51.140;4.088;2023-03-14T00:05:27;6.30;;;1.30;;
32216;SDS011;67098;51.140;4.088;2023-03-14T00:07:53;12.15;;;1.38;;
32216;SDS011;67098;51.140;4.088;2023-03-14T00:10:19;10.90;;;1.50;;
32216;SDS011;67098;51.140;4.088;2023-03-14T00:12:45;5.47;;;1.40;;
32216;SDS011;67098;51.140;4.088;2023-03-14T00:15:11;12.13;;;1.75;;
32216;SDS011;67098;51.140;4.088;2023-03-14T00:17:37;12.43;;;1.83;;
32216;SDS011;67098;51.140;4.088;2023-03-14T00:20:04;7.90;;;1.73;;
32216;SDS011;67098;51.140;4.088;2023-03-14T00:22:36;7.32;;;1.10;;
32216;SDS011;67098;51.140;4.088;2023-03-14T00:25:06;5.07;;;1.50;;
32216;SDS011;67098;51.140;4.088;2023-03-14T00:27:34;7.32;;;1.88;;
32216;SDS011;67098;51.140;4.088;2023-03-14T00:30:01;8.13;;;1.60;;
32216;SDS011;67098;51.140;4.088;2023-03-14T00:32:26;6.68;;;1.17;;
32216;SDS011;67098;51.140;4.088;2023-03-14T00:34:52;9.50;;;1.55;;
32216;SDS011;67098;51.140;4.088;2023-03-14T00:37:18;10.50;;;1.55;;
32216;SDS011;67098;51.140;4.088;2023-03-14T00:39:43;9.45;;;1.65;;
32216;SDS011;67098;51.140;4.088;2023-03-14T00:42:09;9.40;;;1.48;;
32216;SDS011;67098;51.140;4.088;2023-03-14T00:44:35;8.25;;;1.42;;
32216;SDS011;67098;51.140;4.088;2023-03-14T00:47:00;7.75;;;1.23;;
32216;SDS011;67098;51.140;4.088;2023-03-14T00:49:26;10.20;;;1.30;;
32216;SDS011;67098;51.140;4.088;2023-03-14T00:51:52;9.82;;;1.70;;
32216;SDS011;67098;51.140;4.088;2023-03-14T00:54:18;11.45;;;1.60;;
32216;SDS011;67098;51.140;4.088;2023-03-14T00:56:44;12.63;;;1.40;;
32216;SDS011;67098;51.140;4.088;2023-03-14T00:59:10;7.28;;;1.27;;
32216;SDS011;67098;51.140;4.088;2023-03-14T01:01:37;10.98;;;1.83;;
32216;SDS011;67098;51.140;4.088;2023-03-14T01:04:03;10.52;;;1.77;;
32216;SDS011;67098;51.140;4.088;2023-03-14T01:06:29;16.98;;;2.30;;
32216;SDS011;67098;51.140;4.088;2023-03-14T01:08:55;11.95;;;2.38;;
32216;SDS011;67098;51.140;4.088;2023-03-14T01:11:23;10.02;;;1.80;;
32216;SDS011;67098;51.140;4.088;2023-03-14T01:16:19;10.88;;;2.30;;
32216;SDS011;67098;51.140;4.088;2023-03-14T01:18:46;8.90;;;1.67;;
32216;SDS011;67098;51.140;4.088;2023-03-14T01:21:13;18.33;;;2.17;;
32216;SDS011;67098;51.140;4.088;2023-03-14T01:23:40;11.60;;;1.75;;
32216;SDS011;67098;51.140;4.088;2023-03-14T01:26:08;21.20;;;2.90;;
32216;SDS011;67098;51.140;4.088;2023-03-14T01:28:35;18.42;;;2.92;;
32216;SDS011;67098;51.140;4.088;2023-03-14T01:31:02;15.65;;;2.25;;
32216;SDS011;67098;51.140;4.088;2023-03-14T01:33:32;14.77;;;1.75;;
32216;SDS011;67098;51.140;4.088;2023-03-14T01:35:57;8.35;;;2.20;;
32216;SDS011;67098;51.140;4.088;2023-03-14T01:38:23;16.67;;;1.98;;
32216;SDS011;67098;51.140;4.088;2023-03-14T01:40:49;15.85;;;2.13;;
32216;SDS011;67098;51.140;4.088;2023-03-14T01:43:17;12.93;;;2.03;;
32216;SDS011;67098;51.140;4.088;2023-03-14T01:48:31;11.38;;;2.15;;
32216;SDS011;67098;51.140;4.088;2023-03-14T01:51:04;13.55;;;1.95;;
32216;SDS011;67098;51.140;4.088;2023-03-14T01:53:34;10.45;;;2.10;;
32216;SDS011;67098;51.140;4.088;2023-03-14T01:56:00;13.93;;;1.90;;
32216;SDS011;67098;51.140;4.088;2023-03-14T01:58:28;10.85;;;1.52;;
32216;SDS011;67098;51.140;4.088;2023-03-14T02:00:59;7.97;;;1.80;;
32216;SDS011;67098;51.140;4.088;2023-03-14T02:03:26;8.45;;;1.40;;
32216;SDS011;67098;51.140;4.088;2023-03-14T02:05:53;13.60;;;1.70;;
32216;SDS011;67098;51.140;4.088;2023-03-14T02:10:51;12.80;;;2.30;;
32216;SDS011;67098;51.140;4.088;2023-03-14T02:13:17;15.30;;;1.90;;
32216;SDS011;67098;51.140;4.088;2023-03-14T02:15:44;11.85;;;1.73;;
32216;SDS011;67098;51.140;4.088;2023-03-14T02:18:10;8.95;;;1.50;;
32216;SDS011;67098;51.140;4.088;2023-03-14T02:21:20;7.47;;;1.52;;
32216;SDS011;67098;51.140;4.088;2023-03-14T02:28:47;7.97;;;1.45;;
32216;SDS011;67098;51.140;4.088;2023-03-14T02:31:13;7.35;;;1.17;;
32216;SDS011;67098;51.140;4.088;2023-03-14T02:33:40;11.35;;;1.65;;
32216;SDS011;67098;51.140;4.088;2023-03-14T02:36:07;14.73;;;2.38;;
32216;SDS011;67098;51.140;4.088;2023-03-14T02:41:16;6.85;;;1.30;;
32216;SDS011;67098;51.140;4.088;2023-03-14T02:43:42;12.35;;;1.20;;
32216;SDS011;67098;51.140;4.088;2023-03-14T02:46:09;7.68;;;1.35;;
32216;SDS011;67098;51.140;4.088;2023-03-14T02:48:40;8.32;;;1.20;;
32216;SDS011;67098;51.140;4.088;2023-03-14T02:51:09;10.00;;;1.40;;
32216;SDS011;67098;51.140;4.088;2023-03-14T02:53:36;5.75;;;1.13;;
32216;SDS011;67098;51.140;4.088;2023-03-14T02:56:03;7.43;;;1.17;;
32216;SDS011;67098;51.140;4.088;2023-03-14T02:58:30;9.45;;;1.38;;
32216;SDS011;67098;51.140;4.088;2023-03-14T03:00:56;5.20;;;1.10;;
32216;SDS011;67098;51.140;4.088;2023-03-14T03:03:21;8.85;;;1.08;;
32216;SDS011;67098;51.140;4.088;2023-03-14T03:05:48;8.82;;;1.33;;
32216;SDS011;67098;51.140;4.088;2023-03-14T03:08:15;9.88;;;1.45;;
32216;SDS011;67098;51.140;4.088;2023-03-14T03:10:41;5.13;;;1.13;;
32216;SDS011;67098;51.140;4.088;2023-03-14T03:13:07;8.93;;;1.65;;
32216;SDS011;67098;51.140;4.088;2023-03-14T03:15:33;9.77;;;1.58;;
32216;SDS011;67098;51.140;4.088;2023-03-14T03:17:59;5.80;;;1.30;;
32216;SDS011;67098;51.140;4.088;2023-03-14T03:20:24;5.68;;;1.48;;
32216;SDS011;67098;51.140;4.088;2023-03-14T03:22:50;7.47;;;1.55;;
32216;SDS011;67098;51.140;4.088;2023-03-14T03:25:16;14.77;;;2.78;;
32216;SDS011;67098;51.140;4.088;2023-03-14T03:27:41;6.00;;;1.63;;
32216;SDS011;67098;51.140;4.088;2023-03-14T03:30:07;8.27;;;1.83;;
32216;SDS011;67098;51.140;4.088;2023-03-14T03:32:34;10.65;;;2.20;;
32216;SDS011;67098;51.140;4.088;2023-03-14T03:35:02;10.90;;;2.20;;
32216;SDS011;67098;51.140;4.088;2023-03-14T03:37:29;6.70;;;1.88;;
32216;SDS011;67098;51.140;4.088;2023-03-14T03:39:56;7.00;;;1.88;;
32216;SDS011;67098;51.140;4.088;2023-03-14T03:42:22;8.68;;;1.92;;
32216;SDS011;67098;51.140;4.088;2023-03-14T03:44:47;8.38;;;1.80;;
32216;SDS011;67098;51.140;4.088;2023-03-14T03:47:13;10.32;;;2.35;;
32216;SDS011;67098;51.140;4.088;2023-03-14T03:49:39;9.45;;;2.28;;
32216;SDS011;67098;51.140;4.088;2023-03-14T03:52:04;8.52;;;1.92;;
32216;SDS011;67098;51.140;4.088;2023-03-14T03:54:30;7.55;;;1.80;;
32216;SDS011;67098;51.140;4.088;2023-03-14T03:56:55;12.38;;;2.67;;
32216;SDS011;67098;51.140;4.088;2023-03-14T03:59:21;11.75;;;2.25;;
32216;SDS011;67098;51.140;4.088;2023-03-14T04:01:47;9.35;;;2.13;;
32216;SDS011;67098;51.140;4.088;2023-03-14T04:04:13;12.75;;;2.28;;
32216;SDS011;67098;51.140;4.088;2023-03-14T04:06:39;11.23;;;2.47;;
32216;SDS011;67098;51.140;4.088;2023-03-14T04:09:06;8.13;;;2.50;;
32216;SDS011;67098;51.140;4.088;2023-03-14T04:11:33;12.02;;;3.08;;
32216;SDS011;67098;51.140;4.088;2023-03-14T04:13:58;9.60;;;3.15;;
32216;SDS011;67098;51.140;4.088;2023-03-14T04:16:24;9.38;;;2.65;;
32216;SDS011;67098;51.140;4.088;2023-03-14T04:18:51;16.05;;;3.20;;
32216;SDS011;67098;51.140;4.088;2023-03-14T04:21:17;11.40;;;3.15;;
32216;SDS011;67098;51.140;4.088;2023-03-14T04:23:43;12.90;;;3.45;;
32216;SDS011;67098;51.140;4.088;2023-03-14T04:26:08;10.85;;;3.33;;
32216;SDS011;67098;51.140;4.088;2023-03-14T04:28:34;9.23;;;3.78;;
32216;SDS011;67098;51.140;4.088;2023-03-14T04:31:07;13.30;;;3.38;;
32216;SDS011;67098;51.140;4.088;2023-03-14T04:33:33;13.90;;;3.88;;
32216;SDS011;67098;51.140;4.088;2023-03-14T04:35:59;9.93;;;3.75;;
32216;SDS011;67098;51.140;4.088;2023-03-14T04:38:25;10.98;;;3.40;;
32216;SDS011;67098;51.140;4.088;2023-03-14T04:40:50;10.82;;;4.60;;
32216;SDS011;67098;51.140;4.088;2023-03-14T04:43:16;10.52;;;3.70;;
32216;SDS011;67098;51.140;4.088;2023-03-14T04:45:42;10.02;;;3.85;;
32216;SDS011;67098;51.140;4.088;2023-03-14T04:48:07;15.65;;;4.10;;
32216;SDS011;67098;51.140;4.088;2023-03-14T04:50:34;13.05;;;4.35;;
32216;SDS011;67098;51.140;4.088;2023-03-14T04:52:59;13.60;;;4.97;;
32216;SDS011;67098;51.140;4.088;2023-03-14T04:55:25;10.20;;;4.10;;
32216;SDS011;67098;51.140;4.088;2023-03-14T04:57:50;12.38;;;4.18;;
32216;SDS011;67098;51.140;4.088;2023-03-14T05:00:16;14.15;;;4.25;;
32216;SDS011;67098;51.140;4.088;2023-03-14T05:02:45;10.65;;;4.55;;
32216;SDS011;67098;51.140;4.088;2023-03-14T05:05:10;10.70;;;4.10;;
32216;SDS011;67098;51.140;4.088;2023-03-14T05:07:36;10.02;;;3.67;;
32216;SDS011;67098;51.140;4.088;2023-03-14T05:10:02;10.93;;;4.05;;
32216;SDS011;67098;51.140;4.088;2023-03-14T05:12:27;12.60;;;3.83;;
32216;SDS011;67098;51.140;4.088;2023-03-14T05:14:53;14.20;;;3.45;;
32216;SDS011;67098;51.140;4.088;2023-03-14T05:17:19;8.25;;;2.97;;
32216;SDS011;67098;51.140;4.088;2023-03-14T05:19:44;7.25;;;2.60;;
32216;SDS011;67098;51.140;4.088;2023-03-14T05:22:10;5.53;;;2.15;;
32216;SDS011;67098;51.140;4.088;2023-03-14T05:24:36;6.70;;;2.10;;
32216;SDS011;67098;51.140;4.088;2023-03-14T05:27:03;5.53;;;2.45;;
32216;SDS011;67098;51.140;4.088;2023-03-14T05:29:29;5.90;;;2.17;;
32216;SDS011;67098;51.140;4.088;2023-03-14T05:31:55;9.90;;;2.03;;
32216;SDS011;67098;51.140;4.088;2023-03-14T05:34:21;4.38;;;2.03;;
32216;SDS011;67098;51.140;4.088;2023-03-14T05:36:46;4.93;;;1.92;;
32216;SDS011;67098;51.140;4.088;2023-03-14T05:39:12;5.57;;;1.70;;
32216;SDS011;67098;51.140;4.088;2023-03-14T05:41:38;3.60;;;1.80;;
32216;SDS011;67098;51.140;4.088;2023-03-14T05:44:04;8.20;;;2.03;;
32216;SDS011;67098;51.140;4.088;2023-03-14T05:46:30;6.28;;;2.35;;
32216;SDS011;67098;51.140;4.088;2023-03-14T05:48:56;6.45;;;2.35;;
32216;SDS011;67098;51.140;4.088;2023-03-14T05:51:23;7.07;;;2.30;;
32216;SDS011;67098;51.140;4.088;2023-03-14T05:53:48;7.45;;;2.33;;
32216;SDS011;67098;51.140;4.088;2023-03-14T05:56:14;8.15;;;2.08;;
32216;SDS011;67098;51.140;4.088;2023-03-14T05:58:40;6.55;;;2.03;;
32216;SDS011;67098;51.140;4.088;2023-03-14T06:01:06;6.13;;;1.92;;
32216;SDS011;67098;51.140;4.088;2023-03-14T06:03:32;5.80;;;2.30;;
32216;SDS011;67098;51.140;4.088;2023-03-14T06:05:59;5.47;;;2.10;;
32216;SDS011;67098;51.140;4.088;2023-03-14T06:08:24;5.88;;;2.85;;
32216;SDS011;67098;51.140;4.088;2023-03-14T06:10:51;6.80;;;4.05;;
32216;SDS011;67098;51.140;4.088;2023-03-14T06:13:17;6.57;;;3.42;;
32216;SDS011;67098;51.140;4.088;2023-03-14T06:15:42;5.30;;;1.30;;
32216;SDS011;67098;51.140;4.088;2023-03-14T06:18:08;2.90;;;1.05;;
32216;SDS011;67098;51.140;4.088;2023-03-14T06:20:37;6.38;;;1.50;;
32216;SDS011;67098;51.140;4.088;2023-03-14T06:23:06;5.55;;;2.22;;
32216;SDS011;67098;51.140;4.088;2023-03-14T06:25:33;7.00;;;1.63;;
32216;SDS011;67098;51.140;4.088;2023-03-14T06:28:00;6.65;;;1.58;;
32216;SDS011;67098;51.140;4.088;2023-03-14T06:30:26;8.05;;;1.27;;
32216;SDS011;67098;51.140;4.088;2023-03-14T06:32:52;3.38;;;1.10;;
32216;SDS011;67098;51.140;4.088;2023-03-14T06:35:17;4.72;;;1.13;;
32216;SDS011;67098;51.140;4.088;2023-03-14T06:37:43;7.10;;;1.63;;
32216;SDS011;67098;51.140;4.088;2023-03-14T06:40:09;5.40;;;1.25;;
32216;SDS011;67098;51.140;4.088;2023-03-14T06:42:36;4.40;;;1.33;;
32216;SDS011;67098;51.140;4.088;2023-03-14T06:45:01;6.38;;;1.23;;
32216;SDS011;67098;51.140;4.088;2023-03-14T06:47:28;5.18;;;1.45;;
32216;SDS011;67098;51.140;4.088;2023-03-14T06:49:53;7.03;;;1.65;;
32216;SDS011;67098;51.140;4.088;2023-03-14T06:52:19;5.63;;;1.92;;
32216;SDS011;67098;51.140;4.088;2023-03-14T06:54:45;6.72;;;1.90;;
32216;SDS011;67098;51.140;4.088;2023-03-14T06:57:10;10.60;;;1.73;;
32216;SDS011;67098;51.140;4.088;2023-03-14T06:59:36;5.20;;;1.52;;
32216;SDS011;67098;51.140;4.088;2023-03-14T07:02:01;13.52;;;1.75;;
32216;SDS011;67098;51.140;4.088;2023-03-14T07:04:27;7.65;;;1.58;;
32216;SDS011;67098;51.140;4.088;2023-03-14T07:06:53;5.38;;;1.55;;
32216;SDS011;67098;51.140;4.088;2023-03-14T07:09:19;8.40;;;1.73;;
32216;SDS011;67098;51.140;4.088;2023-03-14T07:11:44;7.40;;;1.65;;
32216;SDS011;67098;51.140;4.088;2023-03-14T07:14:10;6.68;;;2.05;;
32216;SDS011;67098;51.140;4.088;2023-03-14T07:16:36;8.23;;;2.33;;
32216;SDS011;67098;51.140;4.088;2023-03-14T07:19:02;6.60;;;1.85;;
32216;SDS011;67098;51.140;4.088;2023-03-14T07:21:28;12.32;;;2.30;;
32216;SDS011;67098;51.140;4.088;2023-03-14T07:23:54;8.85;;;1.98;;
32216;SDS011;67098;51.140;4.088;2023-03-14T07:26:20;11.18;;;2.17;;
32216;SDS011;67098;51.140;4.088;2023-03-14T07:28:46;6.20;;;2.20;;
32216;SDS011;67098;51.140;4.088;2023-03-14T07:31:11;7.10;;;2.38;;
32216;SDS011;67098;51.140;4.088;2023-03-14T07:33:37;9.05;;;2.47;;
32216;SDS011;67098;51.140;4.088;2023-03-14T07:36:03;8.82;;;2.72;;
32216;SDS011;67098;51.140;4.088;2023-03-14T07:38:29;10.57;;;2.60;;
32216;SDS011;67098;51.140;4.088;2023-03-14T07:41:01;12.10;;;2.67;;
32216;SDS011;67098;51.140;4.088;2023-03-14T07:43:28;10.75;;;2.35;;
32216;SDS011;67098;51.140;4.088;2023-03-14T07:45:53;12.13;;;2.92;;
32216;SDS011;67098;51.140;4.088;2023-03-14T07:48:19;11.52;;;2.95;;
32216;SDS011;67098;51.140;4.088;2023-03-14T07:50:49;8.98;;;2.50;;
32216;SDS011;67098;51.140;4.088;2023-03-14T07:53:15;6.57;;;2.50;;
32216;SDS011;67098;51.140;4.088;2023-03-14T07:55:41;6.47;;;2.40;;
32216;SDS011;67098;51.140;4.088;2023-03-14T07:58:06;6.32;;;2.70;;
32216;SDS011;67098;51.140;4.088;2023-03-14T08:00:32;28.13;;;4.63;;
32216;SDS011;67098;51.140;4.088;2023-03-14T08:02:58;20.95;;;3.35;;
32216;SDS011;67098;51.140;4.088;2023-03-14T08:05:23;5.95;;;1.60;;
32216;SDS011;67098;51.140;4.088;2023-03-14T08:07:49;11.27;;;1.50;;
32216;SDS011;67098;51.140;4.088;2023-03-14T08:10:15;4.13;;;1.27;;
32216;SDS011;67098;51.140;4.088;2023-03-14T08:12:50;4.90;;;1.23;;
32216;SDS011;67098;51.140;4.088;2023-03-14T08:15:18;9.68;;;1.25;;
32216;SDS011;67098;51.140;4.088;2023-03-14T08:17:44;8.30;;;1.90;;
32216;SDS011;67098;51.140;4.088;2023-03-14T08:20:10;9.05;;;1.50;;
32216;SDS011;67098;51.140;4.088;2023-03-14T08:22:37;4.97;;;1.50;;
32216;SDS011;67098;51.140;4.088;2023-03-14T08:25:03;4.85;;;0.93;;
32216;SDS011;67098;51.140;4.088;2023-03-14T08:27:29;5.70;;;1.25;;
32216;SDS011;67098;51.140;4.088;2023-03-14T08:29:55;6.13;;;1.23;;
32216;SDS011;67098;51.140;4.088;2023-03-14T08:32:20;6.38;;;1.20;;
32216;SDS011;67098;51.140;4.088;2023-03-14T08:34:48;8.25;;;1.15;;
32216;SDS011;67098;51.140;4.088;2023-03-14T08:37:14;1.83;;;0.90;;
32216;SDS011;67098;51.140;4.088;2023-03-14T08:39:40;4.50;;;1.38;;
32216;SDS011;67098;51.140;4.088;2023-03-14T08:42:05;5.65;;;0.75;;
32216;SDS011;67098;51.140;4.088;2023-03-14T08:44:31;9.98;;;1.42;;
32216;SDS011;67098;51.140;4.088;2023-03-14T08:46:57;4.25;;;1.20;;
32216;SDS011;67098;51.140;4.088;2023-03-14T08:49:22;6.90;;;2.97;;
32216;SDS011;67098;51.140;4.088;2023-03-14T08:51:48;5.30;;;1.60;;
32216;SDS011;67098;51.140;4.088;2023-03-14T08:54:14;3.78;;;1.80;;
32216;SDS011;67098;51.140;4.088;2023-03-14T08:56:39;7.90;;;2.55;;
32216;SDS011;67098;51.140;4.088;2023-03-14T08:59:05;13.65;;;3.38;;
32216;SDS011;67098;51.140;4.088;2023-03-14T09:01:31;8.73;;;2.90;;
32216;SDS011;67098;51.140;4.088;2023-03-14T09:03:57;9.98;;;3.33;;
32216;SDS011;67098;51.140;4.088;2023-03-14T09:06:22;7.95;;;2.95;;
32216;SDS011;67098;51.140;4.088;2023-03-14T09:08:48;7.47;;;3.63;;
32216;SDS011;67098;51.140;4.088;2023-03-14T09:11:13;7.72;;;2.92;;
32216;SDS011;67098;51.140;4.088;2023-03-14T09:13:39;11.02;;;2.97;;
32216;SDS011;67098;51.140;4.088;2023-03-14T09:16:06;7.47;;;2.80;;
32216;SDS011;67098;51.140;4.088;2023-03-14T09:18:32;5.95;;;3.15;;
32216;SDS011;67098;51.140;4.088;2023-03-14T09:20:58;6.78;;;2.95;;
32216;SDS011;67098;51.140;4.088;2023-03-14T09:23:24;6.20;;;2.80;;
32216;SDS011;67098;51.140;4.088;2023-03-14T09:25:53;8.90;;;2.78;;
32216;SDS011;67098;51.140;4.088;2023-03-14T09:28:22;4.88;;;2.50;;
32216;SDS011;67098;51.140;4.088;2023-03-14T09:30:48;3.15;;;2.25;;
32216;SDS011;67098;51.140;4.088;2023-03-14T09:33:14;6.93;;;2.53;;
32216;SDS011;67098;51.140;4.088;2023-03-14T09:35:41;7.38;;;2.50;;
32216;SDS011;67098;51.140;4.088;2023-03-14T09:38:06;5.30;;;2.10;;
32216;SDS011;67098;51.140;4.088;2023-03-14T09:40:33;5.32;;;1.90;;
32216;SDS011;67098;51.140;4.088;2023-03-14T09:43:00;3.40;;;1.80;;
32216;SDS011;67098;51.140;4.088;2023-03-14T09:45:33;3.97;;;1.45;;
32216;SDS011;67098;51.140;4.088;2023-03-14T09:48:01;2.22;;;1.38;;
32216;SDS011;67098;51.140;4.088;2023-03-14T09:50:38;4.22;;;1.30;;
32216;SDS011;67098;51.140;4.088;2023-03-14T09:53:14;4.13;;;1.33;;
32216;SDS011;67098;51.140;4.088;2023-03-14T09:55:47;6.47;;;1.60;;
32216;SDS011;67098;51.140;4.088;2023-03-14T09:58:19;3.75;;;1.80;;
32216;SDS011;67098;51.140;4.088;2023-03-14T10:05:37;7.53;;;2.75;;
32216;SDS011;67098;51.140;4.088;2023-03-14T10:08:03;4.90;;;1.65;;
32216;SDS011;67098;51.140;4.088;2023-03-14T10:10:29;6.65;;;1.40;;
32216;SDS011;67098;51.140;4.088;2023-03-14T10:12:56;2.38;;;1.25;;
32216;SDS011;67098;51.140;4.088;2023-03-14T10:15:46;3.95;;;1.10;;
32216;SDS011;67098;51.140;4.088;2023-03-14T10:18:19;3.58;;;0.75;;
32216;SDS011;67098;51.140;4.088;2023-03-14T10:20:47;3.70;;;0.93;;
32216;SDS011;67098;51.140;4.088;2023-03-14T10:25:43;4.78;;;0.73;;
32216;SDS011;67098;51.140;4.088;2023-03-14T10:28:26;1.33;;;0.50;;
32216;SDS011;67098;51.140;4.088;2023-03-14T10:30:54;2.58;;;1.02;;
32216;SDS011;67098;51.140;4.088;2023-03-14T10:33:22;2.40;;;0.80;;
32216;SDS011;67098;51.140;4.088;2023-03-14T10:36:00;9.15;;;0.93;;
32216;SDS011;67098;51.140;4.088;2023-03-14T10:38:28;3.10;;;1.23;;
32216;SDS011;67098;51.140;4.088;2023-03-14T10:41:01;3.78;;;0.90;;
32216;SDS011;67098;51.140;4.088;2023-03-14T10:43:31;4.93;;;1.17;;
32216;SDS011;67098;51.140;4.088;2023-03-14T10:45:59;4.60;;;1.50;;
32216;SDS011;67098;51.140;4.088;2023-03-14T10:48:40;4.68;;;1.85;;
32216;SDS011;67098;51.140;4.088;2023-03-14T10:51:11;6.88;;;2.35;;
32216;SDS011;67098;51.140;4.088;2023-03-14T10:54:00;5.30;;;3.08;;
32216;SDS011;67098;51.140;4.088;2023-03-14T10:56:36;11.80;;;3.38;;
32216;SDS011;67098;51.140;4.088;2023-03-14T10:59:03;7.57;;;3.17;;
32216;SDS011;67098;51.140;4.088;2023-03-14T11:13:14;9.73;;;3.33;;
32216;SDS011;67098;51.140;4.088;2023-03-14T11:19:03;10.23;;;2.80;;
32216;SDS011;67098;51.140;4.088;2023-03-14T11:22:04;6.95;;;2.35;;
32216;SDS011;67098;51.140;4.088;2023-03-14T11:24:49;7.85;;;2.65;;
32216;SDS011;67098;51.140;4.088;2023-03-14T11:35:37;14.88;;;2.65;;
32216;SDS011;67098;51.140;4.088;2023-03-14T11:38:12;12.93;;;2.33;;
32216;SDS011;67098;51.140;4.088;2023-03-14T11:40:53;18.58;;;2.30;;
32216;SDS011;67098;51.140;4.088;2023-03-14T11:43:44;17.45;;;2.58;;
32216;SDS011;67098;51.140;4.088;2023-03-14T11:46:22;15.20;;;2.15;;
32216;SDS011;67098;51.140;4.088;2023-03-14T11:49:01;9.95;;;1.58;;
32216;SDS011;67098;51.140;4.088;2023-03-14T11:51:36;20.65;;;2.47;;
32216;SDS011;67098;51.140;4.088;2023-03-14T11:54:39;16.45;;;2.22;;
32216;SDS011;67098;51.140;4.088;2023-03-14T11:57:01;14.55;;;2.25;;
32216;SDS011;67098;51.140;4.088;2023-03-14T11:59:38;14.43;;;2.72;;
32216;SDS011;67098;51.140;4.088;2023-03-14T12:13:06;14.35;;;3.00;;
32216;SDS011;67098;51.140;4.088;2023-03-14T12:15:36;16.98;;;2.83;;
32216;SDS011;67098;51.140;4.088;2023-03-14T12:18:25;18.55;;;3.25;;
32216;SDS011;67098;51.140;4.088;2023-03-14T12:21:11;16.27;;;2.55;;
32216;SDS011;67098;51.140;4.088;2023-03-14T12:23:58;23.70;;;3.90;;
32216;SDS011;67098;51.140;4.088;2023-03-14T12:26:27;30.50;;;3.40;;
32216;SDS011;67098;51.140;4.088;2023-03-14T12:29:14;19.35;;;3.22;;
32216;SDS011;67098;51.140;4.088;2023-03-14T12:31:42;20.05;;;3.42;;
32216;SDS011;67098;51.140;4.088;2023-03-14T12:39:20;16.42;;;3.13;;
32216;SDS011;67098;51.140;4.088;2023-03-14T12:44:40;30.55;;;3.78;;
32216;SDS011;67098;51.140;4.088;2023-03-14T12:49:46;23.83;;;3.65;;
32216;SDS011;67098;51.140;4.088;2023-03-14T12:52:21;22.63;;;3.33;;
32216;SDS011;67098;51.140;4.088;2023-03-14T12:55:02;19.35;;;3.13;;
32216;SDS011;67098;51.140;4.088;2023-03-14T13:00:33;20.17;;;3.00;;
32216;SDS011;67098;51.140;4.088;2023-03-14T13:03:22;17.55;;;2.83;;
32216;SDS011;67098;51.140;4.088;2023-03-14T13:08:35;14.05;;;2.30;;
32216;SDS011;67098;51.140;4.088;2023-03-14T13:11:25;19.13;;;3.17;;
32216;SDS011;67098;51.140;4.088;2023-03-14T13:13:57;26.17;;;4.00;;
32216;SDS011;67098;51.140;4.088;2023-03-14T13:16:24;24.55;;;3.15;;
32216;SDS011;67098;51.140;4.088;2023-03-14T13:19:00;23.25;;;3.83;;
32216;SDS011;67098;51.140;4.088;2023-03-14T13:21:40;19.52;;;3.65;;
32216;SDS011;67098;51.140;4.088;2023-03-14T13:24:07;27.42;;;3.10;;
32216;SDS011;67098;51.140;4.088;2023-03-14T13:26:51;20.85;;;3.47;;
32216;SDS011;67098;51.140;4.088;2023-03-14T13:29:19;15.68;;;2.88;;
32216;SDS011;67098;51.140;4.088;2023-03-14T13:31:48;18.23;;;2.65;;
32216;SDS011;67098;51.140;4.088;2023-03-14T13:34:15;22.65;;;2.67;;
32216;SDS011;67098;51.140;4.088;2023-03-14T13:36:41;11.45;;;1.80;;
32216;SDS011;67098;51.140;4.088;2023-03-14T13:39:12;13.45;;;1.92;;
32216;SDS011;67098;51.140;4.088;2023-03-14T13:41:40;16.70;;;2.25;;
32216;SDS011;67098;51.140;4.088;2023-03-14T13:44:07;11.02;;;1.92;;
32216;SDS011;67098;51.140;4.088;2023-03-14T13:49:09;10.02;;;2.47;;
32216;SDS011;67098;51.140;4.088;2023-03-14T13:51:38;16.45;;;1.95;;
32216;SDS011;67098;51.140;4.088;2023-03-14T13:54:11;7.00;;;1.50;;
32216;SDS011;67098;51.140;4.088;2023-03-14T13:56:39;10.60;;;2.25;;
32216;SDS011;67098;51.140;4.088;2023-03-14T13:59:20;7.88;;;1.52;;
32216;SDS011;67098;51.140;4.088;2023-03-14T14:01:47;7.57;;;1.10;;
32216;SDS011;67098;51.140;4.088;2023-03-14T14:04:20;8.18;;;1.35;;
32216;SDS011;67098;51.140;4.088;2023-03-14T14:06:49;6.18;;;0.85;;
32216;SDS011;67098;51.140;4.088;2023-03-14T14:11:43;2.08;;;0.55;;
32216;SDS011;67098;51.140;4.088;2023-03-14T14:16:59;2.40;;;0.45;;
32216;SDS011;67098;51.140;4.088;2023-03-14T14:19:27;2.28;;;0.30;;
32216;SDS011;67098;51.140;4.088;2023-03-14T14:21:54;3.15;;;0.40;;
32216;SDS011;67098;51.140;4.088;2023-03-14T14:24:22;1.13;;;0.40;;
32216;SDS011;67098;51.140;4.088;2023-03-14T14:26:51;4.93;;;0.47;;
32216;SDS011;67098;51.140;4.088;2023-03-14T14:29:29;3.30;;;0.60;;
32216;SDS011;67098;51.140;4.088;2023-03-14T14:31:59;1.98;;;0.60;;
32216;SDS011;67098;51.140;4.088;2023-03-14T14:34:46;5.07;;;0.57;;
32216;SDS011;67098;51.140;4.088;2023-03-14T14:37:22;7.30;;;0.90;;
32216;SDS011;67098;51.140;4.088;2023-03-14T14:42:51;4.25;;;1.08;;
32216;SDS011;67098;51.140;4.088;2023-03-14T14:45:18;5.15;;;0.77;;
32216;SDS011;67098;51.140;4.088;2023-03-14T14:47:52;6.00;;;1.02;;
32216;SDS011;67098;51.140;4.088;2023-03-14T14:50:34;2.83;;;1.02;;
32216;SDS011;67098;51.140;4.088;2023-03-14T14:53:20;3.38;;;0.95;;
32216;SDS011;67098;51.140;4.088;2023-03-14T14:55:52;5.97;;;0.95;;
32216;SDS011;67098;51.140;4.088;2023-03-14T15:01:02;12.13;;;1.48;;
32216;SDS011;67098;51.140;4.088;2023-03-14T15:03:31;9.18;;;1.23;;
32216;SDS011;67098;51.140;4.088;2023-03-14T15:05:58;5.63;;;1.20;;
32216;SDS011;67098;51.140;4.088;2023-03-14T15:08:24;12.82;;;1.48;;
32216;SDS011;67098;51.140;4.088;2023-03-14T15:10:51;11.48;;;1.50;;
32216;SDS011;67098;51.140;4.088;2023-03-14T15:13:17;9.50;;;2.08;;
32216;SDS011;67098;51.140;4.088;2023-03-14T15:15:43;12.23;;;1.35;;
32216;SDS011;67098;51.140;4.088;2023-03-14T15:18:18;20.85;;;2.03;;
32216;SDS011;67098;51.140;4.088;2023-03-14T15:20:44;11.45;;;1.50;;
32216;SDS011;67098;51.140;4.088;2023-03-14T15:23:11;10.73;;;1.50;;
32216;SDS011;67098;51.140;4.088;2023-03-14T15:25:37;12.05;;;1.77;;
32216;SDS011;67098;51.140;4.088;2023-03-14T15:28:09;15.88;;;1.92;;
32216;SDS011;67098;51.140;4.088;2023-03-14T15:30:45;9.77;;;2.88;;
32216;SDS011;67098;51.140;4.088;2023-03-14T15:33:12;7.53;;;1.75;;
32216;SDS011;67098;51.140;4.088;2023-03-14T15:35:38;12.15;;;1.55;;
32216;SDS011;67098;51.140;4.088;2023-03-14T15:38:04;7.55;;;1.48;;
32216;SDS011;67098;51.140;4.088;2023-03-14T15:40:30;13.60;;;2.30;;
32216;SDS011;67098;51.140;4.088;2023-03-14T15:42:55;11.75;;;1.92;;
32216;SDS011;67098;51.140;4.088;2023-03-14T15:45:21;15.45;;;1.83;;
32216;SDS011;67098;51.140;4.088;2023-03-14T15:47:47;11.50;;;1.65;;
32216;SDS011;67098;51.140;4.088;2023-03-14T15:50:13;14.45;;;1.60;;
32216;SDS011;67098;51.140;4.088;2023-03-14T15:52:38;12.98;;;1.88;;
32216;SDS011;67098;51.140;4.088;2023-03-14T15:55:04;13.35;;;2.17;;
32216;SDS011;67098;51.140;4.088;2023-03-14T15:57:30;7.30;;;1.27;;
32216;SDS011;67098;51.140;4.088;2023-03-14T15:59:55;12.93;;;2.35;;
32216;SDS011;67098;51.140;4.088;2023-03-14T16:02:21;11.50;;;1.67;;
32216;SDS011;67098;51.140;4.088;2023-03-14T16:04:47;16.02;;;1.77;;
32216;SDS011;67098;51.140;4.088;2023-03-14T16:07:12;7.25;;;1.08;;
32216;SDS011;67098;51.140;4.088;2023-03-14T16:09:38;15.40;;;2.03;;
32216;SDS011;67098;51.140;4.088;2023-03-14T16:12:03;16.88;;;1.70;;
32216;SDS011;67098;51.140;4.088;2023-03-14T16:14:31;14.00;;;2.20;;
32216;SDS011;67098;51.140;4.088;2023-03-14T16:16:57;8.55;;;1.60;;